map of GRV home
GRV - Airport
Location
City:  Grozny, Chechenskaya (Chechnya), Russian Federation (Russia)
Name:Severny Airport
ICAO:URMG
IATA:GRV

Details
Type:Airport (Aerodrome, Airfield)
Use:Public/Civil, International (customs port of entry)
Latitude:4323'18"N (43.388333)
Longitude:4541'59"E (45.699722)
Elevation:544 ft (166 m)
Variation:7.28E (WMM2015 magnetic declination)
0.08 annual change
Runways:1
Longest:8202 × 148 ft (2500 × 45 m), paved

Weather
METAR:URMG 150800Z VRB01MPS CAVOK 17/03 Q1026 R26/000070 NOSIG RMK QFE754/1006

Related Locations
Nearby:
Farthest:GMR: 11030 mi / 17751 km
Mangareva [Totegegie], Gambier Islands, PF

Find:

   beyond  
but within

Other Information
Maps:
NOTAMs:
Links:
Sources:

  
  • flag of Russian Federation (Russia)
  • flag of Chechenskaya (Chechnya)
  

Airport Diagram

Airport diagram for GRV

Airport diagram PDF from AIP of the Russian Federation

Sectional Chart

Flight Planning
at skyvector.com

Satellite Image

Google Maps Satellite view

Yandex Maps Satellite view


 

Copyright © 2004-2018 Karl L. Swartz. All rights reserved.
The Great Circle Mapper name and logo are trademarks of the Great Circle Mapper.
All other trademarks mentioned herein belong to their respective owners.
Please see credits for attibutions and further copyright information.

  Follow gcmap on Facebook Follow gcmap on Twitter Follow gcmap on Google+ GCmap on LinkedIn

hCard Microformat

Geo Microformat